Riverchase, Alabama
Current Conditions -  °F | °C
As of 12:53 AM on Sunday 23 Nov 2014 (Local Time) from KEET Reporting Station
Overcast Overcast  
Wind Chill: 57°   Ceiling: 1700
Heat Index: 57°   Visibility: 10mi
Dew Point: 51°   Wind: 8mph
Humidity: 81%   Direction: 100°E
Pressure: 30.02"   Gusts: NA
Location:  33.3655°N, 86.7846°W
Report Text: KEET 230653Z AUTO 10007KT 10SM OVC017 14/11 A3002 RMK AO2 SLP163 T01390106
Loading
Personal Weather Stations






























Interactive Weather Map New forecast layout! Learn more

10-Day Weather Forecast

Advertisements
Track Severe Weather on mobile